Washington, MI

11:27 PM EDT on August 28, 2015 (GMT -0400)
Washington, MI | | Change Station
CLOSE
Current Station
Personal Weather Station
Location: Washington, MI
Elevation: 846 ft
Nearby Weather Stations

Elev 846 ft 42.79 °N, 83.04 °W | Updated 21 seconds ago

Partly Cloudy
Partly Cloudy
62.7 °F
Feels Like 62.7 °F
N
0.0
Wind Variable Wind from ENE
Gusts 0.0 mph

Today
High -- | Low -- °F
--% Chance of Precip.
Yesterday
High -- | Low -- °F
Precip. -- in
6:52 AM 8:13 PM
Waxing Gibbous, 99% visible
Pressure 30.14 in
Visibility 10.0 miles
Clouds Few 23000 ft
Dew Point 61 °F
Humidity 95%
Rainfall 0.00 in
Snow Depth Not available.
UV 0 out of 12
Pollen 10.00 out of 12
Air Quality Not available.
Flu Activity Not available.
METAR KMTC 290258Z AUTO 16003KT 10SM FEW230 18/16 A3013 RMK AO2 SLP205 T01780162 51006
Pressure 30.14 in
Visibility 10.0 miles
Clouds Few 23000 ft
Dew Point 61 °F
Humidity 95%
Rainfall 0.00 in
Snow Depth Not available.
UV 0 out of 12
Pollen 10.00 out of 12
Air Quality Not available.
Flu Activity Not available.
METAR KMTC 290258Z AUTO 16003KT 10SM FEW230 18/16 A3013 RMK AO2 SLP205 T01780162 51006

10-Day Weather Forecast

×

Almanac

Astronomy

Aug. 28, 2015 Rise Set
Actual Time
Civil Twilight
Nautical Twilight
Astronomical Twilight
Moon
Length of Visible Light
Length of Day
Tomorrow will be .
, % of the Moon is Illuminated

Today's Extremes

State Highs State Lows

Community

WunderPhotos

Upload Photos

1,850,608 photos uploaded!

WunderBlogs® & News

Nearby

Air Quality

  Air Quality AQ Index Pollutant
Not available.

Snow Depth

Station Depth Elevation

Earthquake Activity

City Distance Mag. Time & Date
Minimum magnitude displayed is 2.5.

Coastal Water Temperatures

Place Temperature

Stations

Nearby Weather Stations

Station Location Temp. Windchill Dew Point Humidity Wind Precip. Elev Updated Type